首页
METAR-TAF:

METAR-TAF

机场 :

弗拉格斯塔夫, 亞利桑那州, 美国

纬度: 35-08-25N, 经度: 111-40-20W, 海拔: 2137米

当前天气观测

该预报发布于13分钟前的04:57 UTC
静风
温度 -4°C
湿度 68%
气压 1021 hPa
能見度: 16.1公里
天空无云

METAR: KFLG 250457Z AUTO 00000KT 10SM CLR M04/M09 A3015 RMK AO2 SLP198 T10441089 TSNO

时间: 22:10 (05:10 UTC)

预报

该预报发布于5小时和50分钟前的23:20 UTC
预报有效从25日的 00点(UTC)到 25日的 24点(UTC)
风速3节,风向多变
能見度: 10公里
天空无云
从 25日的 1800点(UTC)
风速10节,风向西南,有时为18节阵风
能見度: 10公里
天空无云

TAF: KFLG 242320Z 2500/2524 VRB03KT P6SM SKC FM251800 23010G18KT P6SM SKC

超过4000个机场的气象观测和天气预报(METAR&TAF报告)。

可查询的气象台以黄色和红色小点在地图上表示。

将鼠标移到小点上方,可查看气象台名称。

然后点击查看天气观测和预报。

如需切换地图:点击带黑十字的绿色按钮放大地图;点击带横线的绿色按钮缩小地图;或者点击绿色箭头查看邻近地区的地图。


METAR-TAF: